sensor_id;sensor_type;location;lat;lon;timestamp;pressure;altitude;pressure_sealevel;temperature;humidity
59103;BME280;43999;51.660;5.616;2023-04-10T00:01:09;101919.84;;;9.03;93.75
59103;BME280;43999;51.660;5.616;2023-04-10T00:03:36;101915.59;;;9.00;93.12
59103;BME280;43999;51.660;5.616;2023-04-10T00:06:05;101913.94;;;8.97;93.91
59103;BME280;43999;51.660;5.616;2023-04-10T00:08:33;101902.63;;;8.97;94.48
59103;BME280;43999;51.660;5.616;2023-04-10T00:11:00;101897.44;;;8.95;94.40
59103;BME280;43999;51.660;5.616;2023-04-10T00:13:28;101899.09;;;8.98;94.83
59103;BME280;43999;51.660;5.616;2023-04-10T00:15:56;101883.50;;;8.95;94.46
59103;BME280;43999;51.660;5.616;2023-04-10T00:18:24;101886.97;;;8.95;94.94
59103;BME280;43999;51.660;5.616;2023-04-10T00:20:52;101873.09;;;8.93;95.82
59103;BME280;43999;51.660;5.616;2023-04-10T00:23:21;101883.59;;;8.92;95.10
59103;BME280;43999;51.660;5.616;2023-04-10T00:25:48;101880.13;;;8.91;95.93
59103;BME280;43999;51.660;5.616;2023-04-10T00:28:16;101862.84;;;8.86;96.54
59103;BME280;43999;51.660;5.616;2023-04-10T00:30:44;101862.81;;;8.87;96.20
59103;BME280;43999;51.660;5.616;2023-04-10T00:33:12;101864.66;;;8.84;96.41
59103;BME280;43999;51.660;5.616;2023-04-10T00:35:39;101860.38;;;8.81;96.32
59103;BME280;43999;51.660;5.616;2023-04-10T00:38:06;101855.19;;;8.79;96.19
59103;BME280;43999;51.660;5.616;2023-04-10T00:40:34;101851.69;;;8.81;96.17
59103;BME280;43999;51.660;5.616;2023-04-10T00:43:01;101848.28;;;8.78;96.36
59103;BME280;43999;51.660;5.616;2023-04-10T00:45:29;101842.31;;;8.73;95.88
59103;BME280;43999;51.660;5.616;2023-04-10T00:47:57;101842.31;;;8.73;96.21
59103;BME280;43999;51.660;5.616;2023-04-10T00:50:25;101840.63;;;8.72;96.09
59103;BME280;43999;51.660;5.616;2023-04-10T00:52:53;101839.75;;;8.72;96.33
59103;BME280;43999;51.660;5.616;2023-04-10T00:55:21;101840.69;;;8.71;96.04
59103;BME280;43999;51.660;5.616;2023-04-10T00:57:51;101840.69;;;8.71;97.07
59103;BME280;43999;51.660;5.616;2023-04-10T01:00:19;101832.94;;;8.68;96.80
59103;BME280;43999;51.660;5.616;2023-04-10T01:02:47;101830.31;;;8.68;96.93
59103;BME280;43999;51.660;5.616;2023-04-10T01:05:16;101835.63;;;8.65;96.08
59103;BME280;43999;51.660;5.616;2023-04-10T01:08:38;101832.09;;;8.66;96.73
59103;BME280;43999;51.660;5.616;2023-04-10T01:11:12;101838.28;;;8.63;96.97
59103;BME280;43999;51.660;5.616;2023-04-10T01:14:11;101840.94;;;8.61;96.04
59103;BME280;43999;51.660;5.616;2023-04-10T01:17:00;101833.16;;;8.60;96.78
59103;BME280;43999;51.660;5.616;2023-04-10T01:19:58;101829.66;;;8.59;97.08
59103;BME280;43999;51.660;5.616;2023-04-10T01:26:13;101813.38;;;8.51;96.68
59103;BME280;43999;51.660;5.616;2023-04-10T01:29:07;101821.13;;;8.54;97.48
59103;BME280;43999;51.660;5.616;2023-04-10T01:31:57;101811.66;;;8.50;97.57
59103;BME280;43999;51.660;5.616;2023-04-10T01:34:50;101820.47;;;8.48;97.22
59103;BME280;43999;51.660;5.616;2023-04-10T01:37:25;101809.22;;;8.44;98.36
59103;BME280;43999;51.660;5.616;2023-04-10T01:40:05;101807.50;;;8.43;97.91
59103;BME280;43999;51.660;5.616;2023-04-10T01:42:45;101804.09;;;8.39;98.18
59103;BME280;43999;51.660;5.616;2023-04-10T01:45:21;101812.81;;;8.40;98.61
59103;BME280;43999;51.660;5.616;2023-04-10T01:47:54;101804.22;;;8.35;98.94
59103;BME280;43999;51.660;5.616;2023-04-10T01:50:22;101811.13;;;8.37;99.20
59103;BME280;43999;51.660;5.616;2023-04-10T01:52:54;101801.66;;;8.33;99.33
59103;BME280;43999;51.660;5.616;2023-04-10T01:55:25;101793.06;;;8.30;99.54
59103;BME280;43999;51.660;5.616;2023-04-10T01:58:01;101794.88;;;8.28;99.76
59103;BME280;43999;51.660;5.616;2023-04-10T02:00:37;101792.31;;;8.26;99.51
59103;BME280;43999;51.660;5.616;2023-04-10T02:03:09;101783.75;;;8.21;99.63
59103;BME280;43999;51.660;5.616;2023-04-10T02:08:52;101782.97;;;8.17;100.00
59103;BME280;43999;51.660;5.616;2023-04-10T02:12:08;101774.41;;;8.14;100.00
59103;BME280;43999;51.660;5.616;2023-04-10T02:14:42;101771.00;;;8.10;100.00
59103;BME280;43999;51.660;5.616;2023-04-10T02:17:19;101772.81;;;8.08;100.00
59103;BME280;43999;51.660;5.616;2023-04-10T02:19:58;101770.25;;;8.06;100.00
59103;BME280;43999;51.660;5.616;2023-04-10T02:22:27;101766.81;;;8.04;100.00
59103;BME280;43999;51.660;5.616;2023-04-10T02:24:56;101758.25;;;7.99;100.00
59103;BME280;43999;51.660;5.616;2023-04-10T02:27:33;101766.03;;;8.01;100.00
59103;BME280;43999;51.660;5.616;2023-04-10T02:30:03;101766.13;;;7.98;100.00
59103;BME280;43999;51.660;5.616;2023-04-10T02:32:34;101766.16;;;7.96;100.00
59103;BME280;43999;51.660;5.616;2023-04-10T02:35:02;101754.06;;;7.94;100.00
59103;BME280;43999;51.660;5.616;2023-04-10T02:37:30;101760.16;;;7.94;100.00
59103;BME280;43999;51.660;5.616;2023-04-10T02:40:00;101759.25;;;7.95;100.00
59103;BME280;43999;51.660;5.616;2023-04-10T02:42:35;101752.44;;;7.89;100.00
59103;BME280;43999;51.660;5.616;2023-04-10T02:45:03;101759.28;;;7.94;100.00
59103;BME280;43999;51.660;5.616;2023-04-10T02:47:37;101760.22;;;7.91;100.00
59103;BME280;43999;51.660;5.616;2023-04-10T02:50:05;101761.06;;;7.92;100.00
59103;BME280;43999;51.660;5.616;2023-04-10T02:52:36;101754.97;;;7.93;100.00
59103;BME280;43999;51.660;5.616;2023-04-10T02:55:04;101748.16;;;7.88;100.00
59103;BME280;43999;51.660;5.616;2023-04-10T02:57:35;101753.19;;;7.93;100.00
59103;BME280;43999;51.660;5.616;2023-04-10T03:00:03;101747.13;;;7.93;100.00
59103;BME280;43999;51.660;5.616;2023-04-10T03:02:53;101745.53;;;7.88;100.00
59103;BME280;43999;51.660;5.616;2023-04-10T03:05:24;101744.66;;;7.88;100.00
59103;BME280;43999;51.660;5.616;2023-04-10T03:07:52;101751.59;;;7.89;100.00
59103;BME280;43999;51.660;5.616;2023-04-10T03:10:20;101753.31;;;7.90;100.00
59103;BME280;43999;51.660;5.616;2023-04-10T03:12:49;101754.22;;;7.89;100.00
59103;BME280;43999;51.660;5.616;2023-04-10T03:15:19;101749.03;;;7.87;100.00
59103;BME280;43999;51.660;5.616;2023-04-10T03:17:48;101758.75;;;7.82;100.00
59103;BME280;43999;51.660;5.616;2023-04-10T03:20:16;101755.19;;;7.85;100.00
59103;BME280;43999;51.660;5.616;2023-04-10T03:22:44;101761.31;;;7.84;100.00
59103;BME280;43999;51.660;5.616;2023-04-10T03:25:12;101755.19;;;7.85;99.76
59103;BME280;43999;51.660;5.616;2023-04-10T03:27:44;101756.19;;;7.81;100.00
59103;BME280;43999;51.660;5.616;2023-04-10T03:30:13;101755.22;;;7.83;99.71
59103;BME280;43999;51.660;5.616;2023-04-10T03:32:41;101759.59;;;7.83;100.00
59103;BME280;43999;51.660;5.616;2023-04-10T03:35:09;101762.25;;;7.81;99.69
59103;BME280;43999;51.660;5.616;2023-04-10T03:37:37;101757.13;;;7.78;99.70
59103;BME280;43999;51.660;5.616;2023-04-10T03:40:07;101741.66;;;7.70;99.66
59103;BME280;43999;51.660;5.616;2023-04-10T03:42:35;101749.41;;;7.74;100.00
59103;BME280;43999;51.660;5.616;2023-04-10T03:45:04;101732.94;;;7.71;100.00
59103;BME280;43999;51.660;5.616;2023-04-10T03:47:33;101740.00;;;7.68;99.96
59103;BME280;43999;51.660;5.616;2023-04-10T03:50:03;101733.09;;;7.67;100.00
59103;BME280;43999;51.660;5.616;2023-04-10T03:52:39;101728.78;;;7.64;100.00
59103;BME280;43999;51.660;5.616;2023-04-10T03:55:12;101733.16;;;7.64;100.00
59103;BME280;43999;51.660;5.616;2023-04-10T03:57:41;101726.44;;;7.55;99.88
59103;BME280;43999;51.660;5.616;2023-04-10T04:00:10;101724.53;;;7.60;100.00
59103;BME280;43999;51.660;5.616;2023-04-10T04:02:48;101728.13;;;7.58;100.00
59103;BME280;43999;51.660;5.616;2023-04-10T04:05:38;101724.66;;;7.56;99.96
59103;BME280;43999;51.660;5.616;2023-04-10T04:08:26;101715.19;;;7.53;100.00
59103;BME280;43999;51.660;5.616;2023-04-10T04:11:10;101712.66;;;7.50;100.00
59103;BME280;43999;51.660;5.616;2023-04-10T04:13:57;101713.63;;;7.46;100.00
59103;BME280;43999;51.660;5.616;2023-04-10T04:16:46;101716.31;;;7.43;100.00
59103;BME280;43999;51.660;5.616;2023-04-10T04:19:37;101711.19;;;7.40;100.00
59103;BME280;43999;51.660;5.616;2023-04-10T04:22:23;101711.28;;;7.36;100.00
59103;BME280;43999;51.660;5.616;2023-04-10T04:25:07;101707.91;;;7.33;100.00
59103;BME280;43999;51.660;5.616;2023-04-10T04:27:58;101703.56;;;7.32;100.00
59103;BME280;43999;51.660;5.616;2023-04-10T04:30:44;101690.75;;;7.24;100.00
59103;BME280;43999;51.660;5.616;2023-04-10T04:33:17;101703.66;;;7.29;100.00
59103;BME280;43999;51.660;5.616;2023-04-10T04:35:59;101700.28;;;7.25;100.00
59103;BME280;43999;51.660;5.616;2023-04-10T04:38:53;101690.78;;;7.23;100.00
59103;BME280;43999;51.660;5.616;2023-04-10T04:41:40;101700.28;;;7.25;100.00
59103;BME280;43999;51.660;5.616;2023-04-10T04:44:26;101704.63;;;7.25;100.00
59103;BME280;43999;51.660;5.616;2023-04-10T04:47:08;101708.09;;;7.25;100.00
59103;BME280;43999;51.660;5.616;2023-04-10T04:50:03;101702.06;;;7.23;100.00
59103;BME280;43999;51.660;5.616;2023-04-10T04:52:50;101699.41;;;7.25;100.00
59103;BME280;43999;51.660;5.616;2023-04-10T04:55:27;101702.00;;;7.25;100.00
59103;BME280;43999;51.660;5.616;2023-04-10T04:58:23;101690.69;;;7.26;100.00
59103;BME280;43999;51.660;5.616;2023-04-10T05:01:10;101690.69;;;7.26;100.00
59103;BME280;43999;51.660;5.616;2023-04-10T05:03:58;101690.69;;;7.26;100.00
59103;BME280;43999;51.660;5.616;2023-04-10T05:06:35;101688.97;;;7.25;99.71
59103;BME280;43999;51.660;5.616;2023-04-10T05:09:16;101683.72;;;7.26;100.00
59103;BME280;43999;51.660;5.616;2023-04-10T05:12:09;101680.19;;;7.29;100.00
59103;BME280;43999;51.660;5.616;2023-04-10T05:15:00;101665.41;;;7.29;99.39
59103;BME280;43999;51.660;5.616;2023-04-10T05:17:37;101663.66;;;7.30;99.76
59103;BME280;43999;51.660;5.616;2023-04-10T05:20:24;101661.00;;;7.31;99.71
59103;BME280;43999;51.660;5.616;2023-04-10T05:23:22;101662.75;;;7.31;99.38
59103;BME280;43999;51.660;5.616;2023-04-10T05:26:19;101659.88;;;7.40;99.29
59103;BME280;43999;51.660;5.616;2023-04-10T05:28:52;101664.06;;;7.47;98.64
59103;BME280;43999;51.660;5.616;2023-04-10T05:31:51;101665.69;;;7.51;99.88
59103;BME280;43999;51.660;5.616;2023-04-10T05:34:57;101657.78;;;7.54;99.19
59103;BME280;43999;51.660;5.616;2023-04-10T05:37:47;101656.84;;;7.56;99.10
59103;BME280;43999;51.660;5.616;2023-04-10T05:40:33;101659.34;;;7.60;98.15
59103;BME280;43999;51.660;5.616;2023-04-10T05:43:19;101667.06;;;7.63;98.67
59103;BME280;43999;51.660;5.616;2023-04-10T05:46:07;101660.00;;;7.68;98.85
59103;BME280;43999;51.660;5.616;2023-04-10T05:48:57;101667.69;;;7.73;98.79
59103;BME280;43999;51.660;5.616;2023-04-10T05:51:51;101657.97;;;7.78;98.83
59103;BME280;43999;51.660;5.616;2023-04-10T05:54:42;101665.63;;;7.84;97.76
59103;BME280;43999;51.660;5.616;2023-04-10T05:57:09;101658.41;;;7.93;97.72
59103;BME280;43999;51.660;5.616;2023-04-10T05:59:55;101657.38;;;7.98;97.53
59103;BME280;43999;51.660;5.616;2023-04-10T06:02:23;101657.25;;;8.03;98.01
59103;BME280;43999;51.660;5.616;2023-04-10T06:04:52;101658.00;;;8.06;97.17
59103;BME280;43999;51.660;5.616;2023-04-10T06:07:19;101654.34;;;8.12;96.88
59103;BME280;43999;51.660;5.616;2023-04-10T06:09:49;101659.38;;;8.18;96.85
59103;BME280;43999;51.660;5.616;2023-04-10T06:12:17;101656.59;;;8.24;96.76
59103;BME280;43999;51.660;5.616;2023-04-10T06:14:46;101662.47;;;8.31;96.31
59103;BME280;43999;51.660;5.616;2023-04-10T06:17:19;101667.53;;;8.36;96.62
59103;BME280;43999;51.660;5.616;2023-04-10T06:19:52;101660.34;;;8.44;96.62
59103;BME280;43999;51.660;5.616;2023-04-10T06:22:19;101658.50;;;8.48;96.35
59103;BME280;43999;51.660;5.616;2023-04-10T06:24:47;101653.09;;;8.54;96.52
59103;BME280;43999;51.660;5.616;2023-04-10T06:27:15;101655.44;;;8.61;96.10
59103;BME280;43999;51.660;5.616;2023-04-10T06:29:46;101644.84;;;8.66;95.96
59103;BME280;43999;51.660;5.616;2023-04-10T06:32:19;101644.59;;;8.74;94.61
59103;BME280;43999;51.660;5.616;2023-04-10T06:34:48;101639.97;;;8.82;94.68
59103;BME280;43999;51.660;5.616;2023-04-10T06:37:17;101642.31;;;8.90;94.00
59103;BME280;43999;51.660;5.616;2023-04-10T06:39:45;101621.25;;;8.94;93.21
59103;BME280;43999;51.660;5.616;2023-04-10T06:42:13;101632.34;;;9.01;92.77
59103;BME280;43999;51.660;5.616;2023-04-10T06:44:54;101620.94;;;9.04;92.12
59103;BME280;43999;51.660;5.616;2023-04-10T06:47:24;101624.22;;;9.09;91.36
59103;BME280;43999;51.660;5.616;2023-04-10T06:49:51;101618.03;;;9.11;91.05
59103;BME280;43999;51.660;5.616;2023-04-10T06:52:19;101624.00;;;9.15;91.76
59103;BME280;43999;51.660;5.616;2023-04-10T06:54:47;101627.34;;;9.20;91.05
59103;BME280;43999;51.660;5.616;2023-04-10T06:57:14;101614.94;;;9.25;91.33
59103;BME280;43999;51.660;5.616;2023-04-10T06:59:43;101610.44;;;9.29;91.53
59103;BME280;43999;51.660;5.616;2023-04-10T07:02:11;101600.66;;;9.34;91.19
59103;BME280;43999;51.660;5.616;2023-04-10T07:04:42;101592.63;;;9.39;90.76
59103;BME280;43999;51.660;5.616;2023-04-10T07:07:10;101580.28;;;9.44;90.59
59103;BME280;43999;51.660;5.616;2023-04-10T07:09:39;101569.75;;;9.45;89.81
59103;BME280;43999;51.660;5.616;2023-04-10T07:12:07;101578.03;;;9.57;88.27
59103;BME280;43999;51.660;5.616;2023-04-10T07:14:34;101576.25;;;9.57;89.34
59103;BME280;43999;51.660;5.616;2023-04-10T07:17:02;101563.00;;;9.62;87.89
59103;BME280;43999;51.660;5.616;2023-04-10T07:19:29;101567.16;;;9.67;87.78
59103;BME280;43999;51.660;5.616;2023-04-10T07:21:58;101567.88;;;9.71;87.71
59103;BME280;43999;51.660;5.616;2023-04-10T07:24:32;101558.00;;;9.79;88.19
59103;BME280;43999;51.660;5.616;2023-04-10T07:27:00;101561.22;;;9.86;87.83
59103;BME280;43999;51.660;5.616;2023-04-10T07:29:29;101550.56;;;9.91;87.21
59103;BME280;43999;51.660;5.616;2023-04-10T07:31:59;101547.31;;;10.06;85.83
59103;BME280;43999;51.660;5.616;2023-04-10T07:34:27;101545.31;;;10.13;85.63
59103;BME280;43999;51.660;5.616;2023-04-10T07:36:55;101544.16;;;10.20;84.34
59103;BME280;43999;51.660;5.616;2023-04-10T07:39:22;101535.91;;;10.29;84.08
59103;BME280;43999;51.660;5.616;2023-04-10T07:41:53;101529.78;;;10.30;84.20
59103;BME280;43999;51.660;5.616;2023-04-10T07:44:22;101536.22;;;10.44;84.06
59103;BME280;43999;51.660;5.616;2023-04-10T07:46:50;101537.53;;;10.54;82.17
59103;BME280;43999;51.660;5.616;2023-04-10T07:49:18;101518.13;;;10.58;83.25
59103;BME280;43999;51.660;5.616;2023-04-10T07:51:45;101515.03;;;10.69;81.80
59103;BME280;43999;51.660;5.616;2023-04-10T07:54:13;101511.09;;;10.79;81.54
59103;BME280;43999;51.660;5.616;2023-04-10T07:56:42;101505.94;;;10.97;81.39
59103;BME280;43999;51.660;5.616;2023-04-10T07:59:13;101507.88;;;11.12;81.84
59103;BME280;43999;51.660;5.616;2023-04-10T08:01:43;101506.19;;;11.30;80.72
59103;BME280;43999;51.660;5.616;2023-04-10T08:04:11;101498.38;;;11.47;80.17
59103;BME280;43999;51.660;5.616;2023-04-10T08:06:38;101498.47;;;11.65;78.08
59103;BME280;43999;51.660;5.616;2023-04-10T08:09:07;101489.25;;;11.93;75.13
59103;BME280;43999;51.660;5.616;2023-04-10T08:11:36;101488.34;;;12.11;74.94
59103;BME280;43999;51.660;5.616;2023-04-10T08:14:05;101484.84;;;12.28;73.61
59103;BME280;43999;51.660;5.616;2023-04-10T08:16:34;101485.19;;;12.40;74.41
59103;BME280;43999;51.660;5.616;2023-04-10T08:19:03;101491.72;;;12.48;73.31
59103;BME280;43999;51.660;5.616;2023-04-10T08:21:31;101480.06;;;12.54;73.41
59103;BME280;43999;51.660;5.616;2023-04-10T08:24:02;101466.59;;;12.60;71.82
59103;BME280;43999;51.660;5.616;2023-04-10T08:26:33;101473.41;;;12.64;68.89
59103;BME280;43999;51.660;5.616;2023-04-10T08:29:00;101473.56;;;12.61;69.57
59103;BME280;43999;51.660;5.616;2023-04-10T08:31:28;101472.69;;;12.61;69.77
59103;BME280;43999;51.660;5.616;2023-04-10T08:33:57;101486.69;;;12.61;69.77
59103;BME280;43999;51.660;5.616;2023-04-10T08:36:27;101480.50;;;12.62;69.62
59103;BME280;43999;51.660;5.616;2023-04-10T08:38:55;101480.41;;;12.64;70.35
59103;BME280;43999;51.660;5.616;2023-04-10T08:41:23;101474.91;;;12.68;71.19
59103;BME280;43999;51.660;5.616;2023-04-10T08:43:50;101471.13;;;12.74;71.40
59103;BME280;43999;51.660;5.616;2023-04-10T08:46:19;101468.09;;;12.82;72.04
59103;BME280;43999;51.660;5.616;2023-04-10T08:49:03;101469.91;;;12.97;67.83
59103;BME280;43999;51.660;5.616;2023-04-10T08:51:55;101465.06;;;13.05;67.46
59103;BME280;43999;51.660;5.616;2023-04-10T08:54:32;101451.66;;;13.10;67.39
59103;BME280;43999;51.660;5.616;2023-04-10T08:57:03;101453.13;;;13.16;65.97
59103;BME280;43999;51.660;5.616;2023-04-10T08:59:35;101455.66;;;13.17;67.54
59103;BME280;43999;51.660;5.616;2023-04-10T09:02:05;101452.06;;;13.18;66.57
59103;BME280;43999;51.660;5.616;2023-04-10T09:04:32;101460.25;;;13.14;67.29
59103;BME280;43999;51.660;5.616;2023-04-10T09:07:00;101454.91;;;13.15;66.71
59103;BME280;43999;51.660;5.616;2023-04-10T09:09:29;101444.97;;;13.20;67.00
59103;BME280;43999;51.660;5.616;2023-04-10T09:12:02;101446.56;;;13.23;68.13
59103;BME280;43999;51.660;5.616;2023-04-10T09:14:32;101445.38;;;13.28;68.15
59103;BME280;43999;51.660;5.616;2023-04-10T09:17:21;101434.53;;;13.35;70.06
59103;BME280;43999;51.660;5.616;2023-04-10T09:19:52;101441.84;;;13.45;68.83
59103;BME280;43999;51.660;5.616;2023-04-10T09:22:34;101432.66;;;13.53;66.73
59103;BME280;43999;51.660;5.616;2023-04-10T09:25:03;101434.44;;;13.52;67.40
59103;BME280;43999;51.660;5.616;2023-04-10T09:27:34;101411.50;;;13.54;68.09
59103;BME280;43999;51.660;5.616;2023-04-10T09:30:05;101423.81;;;13.54;68.37
59103;BME280;43999;51.660;5.616;2023-04-10T09:32:45;101418.63;;;13.52;68.34
59103;BME280;43999;51.660;5.616;2023-04-10T09:35:15;101411.78;;;13.50;69.43
59103;BME280;43999;51.660;5.616;2023-04-10T09:37:45;101409.63;;;13.56;69.61
59103;BME280;43999;51.660;5.616;2023-04-10T09:40:23;101396.56;;;13.55;69.11
59103;BME280;43999;51.660;5.616;2023-04-10T09:42:52;101398.25;;;13.56;69.24
59103;BME280;43999;51.660;5.616;2023-04-10T09:45:22;101395.44;;;13.59;70.06
59103;BME280;43999;51.660;5.616;2023-04-10T09:48:07;101385.50;;;13.64;69.52
59103;BME280;43999;51.660;5.616;2023-04-10T09:50:40;101379.13;;;13.68;69.21
59103;BME280;43999;51.660;5.616;2023-04-10T09:53:15;101369.16;;;13.73;68.44
59103;BME280;43999;51.660;5.616;2023-04-10T09:55:48;101374.31;;;13.75;69.10
59103;BME280;43999;51.660;5.616;2023-04-10T09:58:17;101358.81;;;13.85;68.86
59103;BME280;43999;51.660;5.616;2023-04-10T10:00:47;101369.94;;;13.90;67.70
59103;BME280;43999;51.660;5.616;2023-04-10T10:03:18;101366.28;;;13.92;67.82
59103;BME280;43999;51.660;5.616;2023-04-10T10:05:50;101365.06;;;13.98;67.81
59103;BME280;43999;51.660;5.616;2023-04-10T10:08:20;101359.78;;;13.98;68.21
59103;BME280;43999;51.660;5.616;2023-04-10T10:10:53;101363.00;;;14.03;69.09
59103;BME280;43999;51.660;5.616;2023-04-10T10:13:37;101360.75;;;14.11;67.46
59103;BME280;43999;51.660;5.616;2023-04-10T10:16:37;101354.06;;;14.20;67.85
59103;BME280;43999;51.660;5.616;2023-04-10T10:19:45;101336.75;;;14.30;65.40
59103;BME280;43999;51.660;5.616;2023-04-10T10:22:49;101342.78;;;14.32;66.80
59103;BME280;43999;51.660;5.616;2023-04-10T10:25:19;101340.81;;;14.36;67.50
59103;BME280;43999;51.660;5.616;2023-04-10T10:27:50;101337.78;;;14.42;67.10
59103;BME280;43999;51.660;5.616;2023-04-10T10:30:24;101326.00;;;14.48;68.14
59103;BME280;43999;51.660;5.616;2023-04-10T10:32:58;101301.97;;;14.52;67.45
59103;BME280;43999;51.660;5.616;2023-04-10T10:35:27;101300.31;;;14.66;67.73
59103;BME280;43999;51.660;5.616;2023-04-10T10:37:58;101304.09;;;14.89;66.52
59103;BME280;43999;51.660;5.616;2023-04-10T10:40:50;101308.72;;;15.13;66.58
59103;BME280;43999;51.660;5.616;2023-04-10T10:44:05;101301.81;;;15.37;66.94
59103;BME280;43999;51.660;5.616;2023-04-10T10:47:00;101299.94;;;15.65;65.33
59103;BME280;43999;51.660;5.616;2023-04-10T10:50:01;101285.63;;;15.82;64.68
59103;BME280;43999;51.660;5.616;2023-04-10T10:52:45;101286.25;;;15.86;64.35
59103;BME280;43999;51.660;5.616;2023-04-10T10:57:58;101261.00;;;15.94;60.25
59103;BME280;43999;51.660;5.616;2023-04-10T11:05:52;101259.47;;;16.16;61.29
59103;BME280;43999;51.660;5.616;2023-04-10T11:08:43;101250.00;;;16.38;60.95
59103;BME280;43999;51.660;5.616;2023-04-10T11:11:26;101251.09;;;16.59;58.67
59103;BME280;43999;51.660;5.616;2023-04-10T11:16:45;101240.75;;;17.05;55.96
59103;BME280;43999;51.660;5.616;2023-04-10T11:19:18;101242.81;;;17.12;54.37
59103;BME280;43999;51.660;5.616;2023-04-10T11:24:58;101236.88;;;17.44;53.42
59103;BME280;43999;51.660;5.616;2023-04-10T11:30:31;101223.31;;;17.71;51.50
59103;BME280;43999;51.660;5.616;2023-04-10T11:33:03;101205.59;;;17.83;51.39
59103;BME280;43999;51.660;5.616;2023-04-10T11:35:32;101190.44;;;17.97;50.55
59103;BME280;43999;51.660;5.616;2023-04-10T11:38:15;101208.25;;;18.06;50.32
59103;BME280;43999;51.660;5.616;2023-04-10T11:41:07;101194.13;;;18.28;50.16
59103;BME280;43999;51.660;5.616;2023-04-10T11:43:34;101210.47;;;18.44;49.36
59103;BME280;43999;51.660;5.616;2023-04-10T11:46:06;101179.09;;;18.50;48.92
59103;BME280;43999;51.660;5.616;2023-04-10T11:48:35;101182.78;;;18.37;48.79
59103;BME280;43999;51.660;5.616;2023-04-10T11:51:13;101178.34;;;18.15;49.02
59103;BME280;43999;51.660;5.616;2023-04-10T11:53:42;101166.56;;;17.97;49.99
59103;BME280;43999;51.660;5.616;2023-04-10T11:56:18;101193.53;;;17.79;50.06
59103;BME280;43999;51.660;5.616;2023-04-10T11:58:51;101179.09;;;17.61;50.64
59103;BME280;43999;51.660;5.616;2023-04-10T12:01:22;101184.50;;;17.48;51.43
59103;BME280;43999;51.660;5.616;2023-04-10T12:03:52;101178.94;;;17.39;51.46
59103;BME280;43999;51.660;5.616;2023-04-10T12:06:21;101169.44;;;17.37;51.84
59103;BME280;43999;51.660;5.616;2023-04-10T12:08:48;101168.59;;;17.36;52.34
59103;BME280;43999;51.660;5.616;2023-04-10T12:11:25;101161.50;;;17.37;51.92
59103;BME280;43999;51.660;5.616;2023-04-10T12:13:57;101165.81;;;17.38;52.12
59103;BME280;43999;51.660;5.616;2023-04-10T12:16:26;101154.28;;;17.39;52.71
59103;BME280;43999;51.660;5.616;2023-04-10T12:18:55;101160.91;;;17.45;52.31
59103;BME280;43999;51.660;5.616;2023-04-10T12:21:30;101156.44;;;17.45;53.23
59103;BME280;43999;51.660;5.616;2023-04-10T12:24:04;101141.88;;;17.51;52.34
59103;BME280;43999;51.660;5.616;2023-04-10T12:26:32;101128.75;;;17.49;52.84
59103;BME280;43999;51.660;5.616;2023-04-10T12:29:01;101139.34;;;17.61;51.93
59103;BME280;43999;51.660;5.616;2023-04-10T12:31:33;101120.09;;;17.59;51.87
59103;BME280;43999;51.660;5.616;2023-04-10T12:34:03;101141.53;;;17.55;52.21
59103;BME280;43999;51.660;5.616;2023-04-10T12:36:32;101129.47;;;17.51;53.00
59103;BME280;43999;51.660;5.616;2023-04-10T12:39:03;101116.09;;;17.53;51.52
59103;BME280;43999;51.660;5.616;2023-04-10T12:41:33;101118.63;;;17.54;51.94
59103;BME280;43999;51.660;5.616;2023-04-10T12:44:13;101103.56;;;17.55;51.43
59103;BME280;43999;51.660;5.616;2023-04-10T12:46:45;101113.69;;;17.50;51.45
59103;BME280;43999;51.660;5.616;2023-04-10T12:49:15;101100.34;;;17.40;52.44
59103;BME280;43999;51.660;5.616;2023-04-10T12:51:51;101101.53;;;17.36;52.44
59103;BME280;43999;51.660;5.616;2023-04-10T12:54:34;101085.66;;;17.25;52.17
59103;BME280;43999;51.660;5.616;2023-04-10T12:57:06;101101.28;;;17.16;53.05
59103;BME280;43999;51.660;5.616;2023-04-10T12:59:33;101093.84;;;17.10;53.05
59103;BME280;43999;51.660;5.616;2023-04-10T13:02:26;101084.69;;;17.03;54.35
59103;BME280;43999;51.660;5.616;2023-04-10T13:04:58;101099.72;;;17.02;54.05
59103;BME280;43999;51.660;5.616;2023-04-10T13:07:26;101082.84;;;16.92;53.47
59103;BME280;43999;51.660;5.616;2023-04-10T13:09:57;101079.81;;;16.85;54.32
59103;BME280;43999;51.660;5.616;2023-04-10T13:12:26;101061.38;;;16.73;54.84
59103;BME280;43999;51.660;5.616;2023-04-10T13:14:57;101064.59;;;16.65;55.76
59103;BME280;43999;51.660;5.616;2023-04-10T13:17:25;101070.34;;;16.59;55.40
59103;BME280;43999;51.660;5.616;2023-04-10T13:19:55;101065.41;;;16.54;56.23
59103;BME280;43999;51.660;5.616;2023-04-10T13:22:24;101057.81;;;16.49;56.44
59103;BME280;43999;51.660;5.616;2023-04-10T13:24:52;101058.56;;;16.52;56.17
59103;BME280;43999;51.660;5.616;2023-04-10T13:27:21;101041.00;;;16.51;55.62
59103;BME280;43999;51.660;5.616;2023-04-10T13:29:48;101043.75;;;16.49;55.98
59103;BME280;43999;51.660;5.616;2023-04-10T13:32:16;101010.56;;;16.45;55.55
59103;BME280;43999;51.660;5.616;2023-04-10T13:34:51;101021.47;;;16.40;56.40
59103;BME280;43999;51.660;5.616;2023-04-10T13:37:27;101008.38;;;16.39;56.60
59103;BME280;43999;51.660;5.616;2023-04-10T13:39:59;100994.31;;;16.38;56.07
59103;BME280;43999;51.660;5.616;2023-04-10T13:42:26;100986.38;;;16.38;56.92
59103;BME280;43999;51.660;5.616;2023-04-10T13:44:59;100994.09;;;16.41;57.23
59103;BME280;43999;51.660;5.616;2023-04-10T13:47:30;100984.84;;;16.47;56.65
59103;BME280;43999;51.660;5.616;2023-04-10T13:49:59;100975.22;;;16.46;56.64
59103;BME280;43999;51.660;5.616;2023-04-10T13:52:27;100974.88;;;16.51;56.55
59103;BME280;43999;51.660;5.616;2023-04-10T13:54:54;100967.66;;;16.53;57.14